SAWH/USH METAR and TAF weather

Enter ICAO airport designator
Station Type Date Time Source
SAWH METAR 2020/10/29 17:00 UTC NOAA

SAWH 291700Z 23030KT 9999 -DZ SCT025 BKN045 08/05 Q1008


Station Type Date Time Source
SAWH Decoded METAR 2020/10/29 17:00 UTC NOAA

Ushuaia Aerodrome, Argentina (SAWH) 54-48S 068-19W 14M
Oct 29, 2020 - 01:00 PM EDT / 2020.10.29 1700 UTC
Wind: from the SW (230 degrees) at 35 MPH (30 KT):0
Visibility: greater than 7 mile(s):0
Sky conditions: mostly cloudy
Weather: light drizzle
Temperature: 46 F (8 C)
Dew Point: 41 F (5 C)
Relative Humidity: 81%
Pressure (altimeter): 29.77 in. Hg (1008 hPa)
ob: SAWH 291700Z 23030KT 9999 -DZ SCT025 BKN045 08/05 Q1008
cycle: 17

Station Type Date Time Source
SAWH TAF 2020/10/29 12:06 UTC NOAA

TAF SAWH 291100Z 2912/3012 23020G30KT 8000 -DZ SCT020 BKN025 OVC050 TX10/2919Z TN04/2912Z
BECMG 2916/2918 25015KT 8000 RA BKN025 OVC050
BECMG 2921/3023 29010KT 6000 DZ BKN020 OVC040

Example: see airport list